createdAt,value
2023-02-28T00:05:30.744Z,1.10
2023-02-28T00:15:32.865Z,1.20
2023-02-28T00:25:34.361Z,0.90
2023-02-28T00:35:38.718Z,1.27
2023-02-28T00:45:41.632Z,1.20
2023-02-28T00:55:43.132Z,0.88
2023-02-28T01:05:46.259Z,0.95
2023-02-28T01:15:53.209Z,1.17
2023-02-28T01:25:54.790Z,1.13
2023-02-28T01:36:00.447Z,1.10
2023-02-28T01:46:02.009Z,0.98
2023-02-28T01:56:07.167Z,0.90
2023-02-28T02:06:08.673Z,0.90
2023-02-28T02:16:28.320Z,1.00
2023-02-28T02:26:44.952Z,0.90
2023-02-28T02:36:58.913Z,0.88
2023-02-28T02:47:12.948Z,0.93
2023-02-28T02:57:21.541Z,0.70
2023-02-28T03:07:23.725Z,0.77
2023-02-28T03:18:12.791Z,0.77
2023-02-28T03:28:33.297Z,0.73
2023-02-28T03:39:07.948Z,0.90
2023-02-28T03:49:15.901Z,0.70
2023-02-28T03:59:40.828Z,0.70
2023-02-28T04:09:42.693Z,1.10
2023-02-28T04:19:45.605Z,0.98
2023-02-28T04:29:47.158Z,0.75
2023-02-28T04:39:48.683Z,0.63
2023-02-28T04:49:51.707Z,1.10
2023-02-28T04:59:53.185Z,0.90
2023-02-28T05:09:54.951Z,0.90
2023-02-28T05:20:09.821Z,1.17
2023-02-28T05:30:16.791Z,0.70
2023-02-28T05:40:18.566Z,0.80
2023-02-28T05:50:20.073Z,0.80
2023-02-28T06:00:21.876Z,1.10
2023-02-28T06:10:23.400Z,1.33
2023-02-28T06:20:27.011Z,1.35
2023-02-28T06:30:30.947Z,1.30
2023-02-28T06:40:35.044Z,1.55
2023-02-28T06:50:37.985Z,1.60
2023-02-28T07:00:39.433Z,1.45
2023-02-28T07:10:41.365Z,1.20
2023-02-28T07:20:43.440Z,1.83
2023-02-28T07:30:44.896Z,1.35
2023-02-28T07:40:46.403Z,1.20
2023-02-28T07:50:56.440Z,1.67
2023-02-28T08:00:58.637Z,1.50
2023-02-28T08:11:01.890Z,1.48
2023-02-28T08:21:10.437Z,1.55
2023-02-28T08:31:14.451Z,1.27
2023-02-28T08:41:16.026Z,1.20
2023-02-28T08:51:19.616Z,1.30
2023-02-28T09:01:24.374Z,1.20
2023-02-28T09:11:26.305Z,1.23
2023-02-28T09:21:28.340Z,1.10
2023-02-28T09:31:30.286Z,1.15
2023-02-28T09:41:51.344Z,1.08
2023-02-28T09:52:00.604Z,1.13
2023-02-28T10:02:05.048Z,1.42
2023-02-28T10:12:10.580Z,0.90
2023-02-28T10:22:15.429Z,1.10
2023-02-28T10:32:19.342Z,0.90
2023-02-28T10:42:22.822Z,0.90
2023-02-28T10:52:37.751Z,0.98
2023-02-28T11:02:41.886Z,1.10
2023-02-28T11:12:52.288Z,0.85
2023-02-28T11:22:55.933Z,0.80
2023-02-28T11:32:57.566Z,0.68
2023-02-28T11:43:01.864Z,0.88
2023-02-28T11:53:25.438Z,0.70
2023-02-28T12:03:51.972Z,0.70
2023-02-28T12:14:30.861Z,0.70
2023-02-28T12:24:51.843Z,0.82
2023-02-28T12:34:56.722Z,0.98
2023-02-28T12:45:24.416Z,0.90
2023-02-28T12:55:39.163Z,0.80
2023-02-28T13:06:14.617Z,0.53
2023-02-28T13:16:16.210Z,0.87
2023-02-28T13:26:19.054Z,0.50
2023-02-28T13:36:20.503Z,0.63
2023-02-28T13:46:22.111Z,0.50
2023-02-28T13:56:30.513Z,0.60
2023-02-28T14:06:34.014Z,0.60
2023-02-28T14:16:42.894Z,0.80
2023-02-28T14:27:03.261Z,0.50
2023-02-28T14:37:05.608Z,0.70
2023-02-28T14:47:15.678Z,0.40
2023-02-28T14:57:26.128Z,0.57
2023-02-28T15:07:30.904Z,0.50
2023-02-28T15:17:32.524Z,0.50
2023-02-28T15:27:35.079Z,0.60
2023-02-28T15:37:36.591Z,0.52
2023-02-28T15:47:38.152Z,0.63
2023-02-28T15:57:40.504Z,0.70
2023-02-28T16:07:44.333Z,0.60
2023-02-28T16:17:47.529Z,0.55
2023-02-28T16:27:51.675Z,0.55
2023-02-28T16:37:53.590Z,0.63
2023-02-28T16:47:55.656Z,0.50
2023-02-28T16:58:00.300Z,0.60
2023-02-28T17:08:01.920Z,0.47
2023-02-28T17:18:04.036Z,0.50
2023-02-28T17:28:05.845Z,0.40
2023-02-28T17:38:17.893Z,0.63
2023-02-28T17:48:19.685Z,0.50
2023-02-28T17:58:21.268Z,0.50
2023-02-28T18:08:23.106Z,0.60
2023-02-28T18:18:24.615Z,0.55
2023-02-28T18:28:26.256Z,0.68
2023-02-28T18:38:28.875Z,0.50
2023-02-28T18:48:30.352Z,1.33
2023-02-28T18:58:35.547Z,0.70
2023-02-28T19:08:37.195Z,0.70
2023-02-28T19:18:39.256Z,0.80
2023-02-28T19:28:40.961Z,0.80
2023-02-28T19:38:44.369Z,0.70
2023-02-28T19:48:46.063Z,0.80
2023-02-28T19:58:47.545Z,0.70
2023-02-28T20:08:49.179Z,0.80
2023-02-28T20:18:54.152Z,0.85
2023-02-28T20:28:55.988Z,1.10
2023-02-28T20:39:00.152Z,0.90
2023-02-28T20:49:02.913Z,1.20
2023-02-28T20:59:05.311Z,1.10
2023-02-28T21:09:08.802Z,1.00
2023-02-28T21:19:11.160Z,1.20
2023-02-28T21:29:13.218Z,1.10
2023-02-28T21:39:21.768Z,1.13
2023-02-28T21:49:23.575Z,1.15
2023-02-28T21:59:25.086Z,1.27
2023-02-28T22:09:28.360Z,1.13
2023-02-28T22:19:29.881Z,1.20
2023-02-28T22:29:31.396Z,1.25
2023-02-28T22:39:32.947Z,1.13
2023-02-28T22:49:34.392Z,1.20
2023-02-28T22:59:35.911Z,1.05
2023-02-28T23:09:37.497Z,1.40
2023-02-28T23:19:39.015Z,1.60
2023-02-28T23:29:40.589Z,1.50
2023-02-28T23:39:42.052Z,1.40
2023-02-28T23:49:44.233Z,1.95
2023-02-28T23:59:45.818Z,1.60
